createdAt,value
2023-04-16T00:01:04.480Z,26.80
2023-04-16T00:04:23.657Z,23.30
2023-04-16T00:07:55.808Z,19.90
2023-04-16T00:11:11.347Z,20.50
2023-04-16T00:14:52.142Z,20.90
2023-04-16T00:18:21.895Z,19.10
2023-04-16T00:22:02.684Z,19.00
2023-04-16T00:25:50.289Z,20.00
2023-04-16T00:29:31.803Z,19.30
2023-04-16T00:33:12.972Z,19.30
2023-04-16T00:37:00.778Z,21.60
2023-04-16T00:40:48.440Z,21.30
2023-04-16T00:44:26.298Z,21.70
2023-04-16T00:47:57.419Z,21.10
2023-04-16T00:51:24.033Z,21.40
2023-04-16T00:55:01.613Z,23.60
2023-04-16T00:58:49.290Z,21.70
2023-04-16T01:02:06.653Z,23.50
2023-04-16T01:05:54.507Z,25.20
2023-04-16T01:09:42.150Z,24.50
2023-04-16T01:13:22.787Z,26.10
2023-04-16T01:17:03.074Z,27.10
2023-04-16T01:20:49.740Z,27.60
2023-04-16T01:24:28.348Z,28.30
2023-04-16T01:27:59.401Z,32.40
2023-04-16T01:31:29.625Z,33.60
2023-04-16T01:35:17.126Z,37.30
2023-04-16T01:38:50.102Z,35.40
2023-04-16T01:42:15.296Z,35.90
2023-04-16T01:45:27.970Z,41.30
2023-04-16T01:49:01.388Z,39.50
2023-04-16T01:52:33.464Z,38.40
2023-04-16T01:56:19.390Z,37.80
2023-04-16T02:00:06.934Z,38.60
2023-04-16T02:03:47.518Z,39.60
2023-04-16T02:07:25.454Z,40.60
2023-04-16T02:11:02.686Z,47.50
2023-04-16T02:14:41.111Z,41.70
2023-04-16T02:18:27.523Z,42.80
2023-04-16T02:22:11.234Z,38.30
2023-04-16T02:25:41.329Z,37.70
2023-04-16T02:29:18.797Z,39.50
2023-04-16T02:32:49.215Z,43.40
2023-04-16T02:36:36.832Z,40.80
2023-04-16T02:39:53.269Z,44.50
2023-04-16T02:43:33.109Z,44.00
2023-04-16T02:47:20.604Z,44.50
2023-04-16T02:50:58.377Z,41.30
2023-04-16T02:54:45.777Z,43.10
2023-04-16T02:58:25.746Z,43.10
2023-04-16T03:02:13.276Z,40.80
2023-04-16T03:06:00.945Z,38.60
2023-04-16T03:09:47.080Z,40.10
2023-04-16T03:13:34.677Z,49.40
2023-04-16T03:17:22.252Z,39.90
2023-04-16T03:20:56.695Z,36.80
2023-04-16T03:24:44.194Z,36.70
2023-04-16T03:28:20.782Z,37.70
2023-04-16T03:31:58.476Z,38.30
2023-04-16T03:35:37.644Z,36.30
2023-04-16T03:39:25.344Z,35.20
2023-04-16T03:43:12.817Z,34.60
2023-04-16T03:46:31.698Z,36.50
2023-04-16T03:50:11.865Z,37.60
2023-04-16T03:53:59.474Z,37.80
2023-04-16T03:57:26.795Z,40.60
2023-04-16T04:01:15.364Z,37.20
2023-04-16T04:05:02.115Z,38.50
2023-04-16T04:08:49.775Z,40.10
2023-04-16T04:12:37.084Z,40.50
2023-04-16T04:16:07.448Z,40.80
2023-04-16T04:20:00.299Z,36.40
2023-04-16T04:23:39.928Z,35.90
2023-04-16T04:27:17.910Z,36.40
2023-04-16T04:31:05.735Z,35.40
2023-04-16T04:34:53.188Z,35.90
2023-04-16T04:38:24.509Z,35.80
2023-04-16T04:42:12.221Z,34.40
2023-04-16T04:45:54.387Z,34.80
2023-04-16T04:49:05.524Z,34.20
2023-04-16T04:52:51.618Z,35.30
2023-04-16T04:56:20.075Z,34.10
2023-04-16T05:00:08.153Z,35.30
2023-04-16T05:03:41.839Z,36.70
2023-04-16T05:07:24.590Z,34.80
2023-04-16T05:10:57.212Z,35.20
2023-04-16T05:14:42.413Z,35.60
2023-04-16T05:18:29.976Z,35.90
2023-04-16T05:21:57.603Z,37.00
2023-04-16T05:25:23.579Z,38.10
2023-04-16T05:29:04.113Z,36.60
2023-04-16T05:32:42.279Z,37.00
2023-04-16T05:36:29.883Z,33.50
2023-04-16T05:40:02.775Z,33.10
2023-04-16T05:43:44.118Z,35.10
2023-04-16T05:47:31.687Z,33.70
2023-04-16T05:51:02.074Z,33.90
2023-04-16T05:54:49.760Z,34.30
2023-04-16T05:58:19.810Z,34.50
2023-04-16T06:01:39.923Z,33.10
2023-04-16T06:05:12.822Z,36.20
2023-04-16T06:09:00.350Z,32.10
2023-04-16T06:12:35.892Z,30.70
2023-04-16T06:16:23.932Z,31.40
2023-04-16T06:19:54.577Z,40.70
2023-04-16T06:23:42.417Z,39.90
2023-04-16T06:27:10.175Z,32.10
2023-04-16T06:30:58.218Z,31.60
2023-04-16T06:34:46.021Z,33.60
2023-04-16T06:38:25.700Z,32.70
2023-04-16T06:42:07.720Z,32.30
2023-04-16T06:45:55.488Z,35.30
2023-04-16T06:49:28.792Z,35.00
2023-04-16T06:53:08.935Z,35.90
2023-04-16T06:56:56.789Z,38.10
2023-04-16T07:00:30.209Z,37.00
2023-04-16T07:04:18.571Z,36.50
2023-04-16T07:07:52.411Z,38.10
2023-04-16T07:11:33.743Z,39.40
2023-04-16T07:15:16.670Z,41.00
2023-04-16T07:19:04.753Z,39.90
2023-04-16T07:22:47.853Z,38.40
2023-04-16T07:26:18.356Z,38.90
2023-04-16T07:29:59.704Z,37.40
2023-04-16T07:33:35.187Z,38.30
2023-04-16T07:37:12.769Z,36.70
2023-04-16T07:40:44.140Z,35.00
2023-04-16T07:44:32.524Z,33.80
2023-04-16T07:48:06.024Z,33.30
2023-04-16T07:51:45.847Z,32.60
2023-04-16T07:55:33.862Z,32.80
2023-04-16T07:59:23.875Z,32.50
2023-04-16T08:03:12.145Z,34.10
2023-04-16T08:06:30.567Z,35.20
2023-04-16T08:10:18.506Z,33.70
2023-04-16T08:14:06.363Z,33.10
2023-04-16T08:17:44.455Z,30.40
2023-04-16T08:21:17.163Z,32.70
2023-04-16T08:24:55.124Z,33.50
2023-04-16T08:28:32.704Z,30.90
2023-04-16T08:32:20.279Z,65.20
2023-04-16T08:36:08.185Z,31.60
2023-04-16T08:39:55.911Z,33.20
2023-04-16T08:43:45.689Z,31.30
2023-04-16T08:47:33.385Z,29.60
2023-04-16T08:51:14.412Z,29.90
2023-04-16T08:55:04.969Z,28.80
2023-04-16T08:58:55.374Z,27.30
2023-04-16T09:02:33.850Z,25.50
2023-04-16T09:06:29.748Z,23.50
2023-04-16T09:10:08.064Z,22.30
2023-04-16T09:13:56.450Z,23.00
2023-04-16T09:17:44.909Z,23.10
2023-04-16T09:21:24.289Z,24.40
2023-04-16T09:25:13.328Z,24.90
2023-04-16T09:29:00.327Z,25.00
2023-04-16T09:32:56.946Z,23.10
2023-04-16T09:36:44.778Z,20.50
2023-04-16T09:40:35.822Z,17.80
2023-04-16T09:44:29.882Z,14.20
2023-04-16T09:48:17.255Z,12.40
2023-04-16T09:52:02.413Z,11.80
2023-04-16T09:55:50.736Z,12.70
2023-04-16T09:59:00.087Z,12.20
2023-04-16T10:02:41.130Z,12.40
2023-04-16T10:06:18.724Z,71.50
2023-04-16T10:09:52.156Z,15.60
2023-04-16T10:13:32.576Z,13.80
2023-04-16T10:17:21.178Z,13.00
2023-04-16T10:21:09.068Z,13.20
2023-04-16T10:24:55.636Z,13.70
2023-04-16T10:28:37.551Z,13.30
2023-04-16T10:32:25.286Z,13.10
2023-04-16T10:36:12.903Z,13.20
2023-04-16T10:40:00.609Z,11.90
2023-04-16T10:44:00.794Z,13.50
2023-04-16T10:47:51.566Z,16.50
2023-04-16T10:51:39.341Z,14.40
2023-04-16T10:55:27.120Z,13.40
2023-04-16T10:59:26.845Z,12.60
2023-04-16T11:03:17.530Z,13.20
2023-04-16T11:07:03.602Z,13.60
2023-04-16T11:10:51.555Z,14.10
2023-04-16T11:14:32.116Z,13.60
2023-04-16T11:18:18.845Z,14.10
2023-04-16T11:22:06.798Z,14.20
2023-04-16T11:25:56.538Z,13.80
2023-04-16T11:29:46.972Z,13.60
2023-04-16T11:33:28.358Z,14.00
2023-04-16T11:37:10.028Z,12.80
2023-04-16T11:40:52.523Z,13.90
2023-04-16T11:44:40.938Z,12.40
2023-04-16T11:48:34.392Z,12.70
2023-04-16T11:52:20.131Z,13.40
2023-04-16T11:56:01.489Z,13.80
2023-04-16T11:59:31.131Z,13.10
2023-04-16T12:03:18.971Z,12.90
2023-04-16T12:07:09.720Z,13.40
2023-04-16T12:11:08.158Z,13.60
2023-04-16T12:15:11.096Z,12.50
2023-04-16T12:19:08.677Z,13.00
2023-04-16T12:23:04.440Z,14.10
2023-04-16T12:26:52.728Z,12.40
2023-04-16T12:30:50.692Z,12.50
2023-04-16T12:34:48.409Z,10.50
2023-04-16T12:38:50.044Z,10.20
2023-04-16T12:42:40.049Z,9.70
2023-04-16T12:46:29.190Z,9.80
2023-04-16T12:50:16.162Z,12.00
2023-04-16T12:54:04.122Z,11.10
2023-04-16T12:57:51.769Z,9.40
2023-04-16T13:01:39.578Z,8.60
2023-04-16T13:05:28.577Z,9.60
2023-04-16T13:08:59.592Z,10.90
2023-04-16T13:12:40.497Z,20.20
2023-04-16T13:16:18.838Z,15.60
2023-04-16T13:20:06.811Z,14.80
2023-04-16T13:23:53.587Z,17.10
2023-04-16T13:27:41.363Z,12.90
2023-04-16T13:31:22.008Z,11.40
2023-04-16T13:35:00.061Z,11.40
2023-04-16T13:38:30.862Z,6.30
2023-04-16T13:42:03.251Z,6.70
2023-04-16T13:45:37.351Z,10.70
2023-04-16T13:49:09.605Z,13.80
2023-04-16T13:52:52.549Z,12.80
2023-04-16T13:56:31.554Z,16.70
2023-04-16T13:59:41.198Z,23.10
2023-04-16T14:03:28.384Z,17.40
2023-04-16T14:07:15.208Z,32.50
2023-04-16T14:11:05.361Z,23.30
2023-04-16T14:14:30.090Z,10.30
2023-04-16T14:18:18.456Z,7.40
2023-04-16T14:21:59.031Z,9.90
2023-04-16T14:25:47.029Z,12.80
2023-04-16T14:29:27.943Z,13.90
2023-04-16T14:33:16.907Z,17.40
2023-04-16T14:36:50.415Z,33.00
2023-04-16T14:40:23.962Z,35.20
2023-04-16T14:44:12.880Z,49.50
2023-04-16T14:48:01.502Z,35.80
2023-04-16T14:51:34.151Z,32.60
2023-04-16T14:55:22.686Z,25.60
2023-04-16T14:59:10.656Z,26.50
2023-04-16T15:02:53.051Z,26.60
2023-04-16T15:06:32.279Z,24.40
2023-04-16T15:10:21.165Z,37.50
2023-04-16T15:13:58.924Z,50.90
2023-04-16T15:17:40.067Z,66.90
2023-04-16T15:21:30.342Z,59.50
2023-04-16T15:25:28.260Z,37.60
2023-04-16T15:29:23.223Z,24.00
2023-04-16T15:33:01.677Z,23.30
2023-04-16T15:36:49.412Z,22.60
2023-04-16T15:40:37.183Z,24.30
2023-04-16T15:44:25.199Z,24.70
2023-04-16T15:48:12.041Z,28.80
2023-04-16T15:52:00.674Z,31.30
2023-04-16T15:55:49.828Z,28.90
2023-04-16T15:59:37.492Z,32.20
2023-04-16T16:03:25.258Z,30.60
2023-04-16T16:07:13.593Z,23.30
2023-04-16T16:11:54.060Z,21.00
2023-04-16T16:15:00.212Z,21.40
2023-04-16T16:18:48.838Z,25.00
2023-04-16T16:22:30.082Z,25.70
2023-04-16T16:26:18.154Z,23.70
2023-04-16T16:30:06.418Z,24.00
2023-04-16T16:33:54.954Z,21.70
2023-04-16T16:37:33.491Z,21.40
2023-04-16T16:41:21.532Z,20.90
2023-04-16T16:45:13.444Z,20.90
2023-04-16T16:49:04.509Z,19.80
2023-04-16T16:52:53.089Z,21.20
2023-04-16T16:56:27.349Z,22.90
2023-04-16T17:00:15.348Z,29.80
2023-04-16T17:04:03.161Z,26.50
2023-04-16T17:07:51.927Z,25.50
2023-04-16T17:11:39.190Z,21.40
2023-04-16T17:15:09.933Z,18.30
2023-04-16T17:18:48.780Z,18.80
2023-04-16T17:22:36.523Z,22.50
2023-04-16T17:26:24.345Z,19.70
2023-04-16T17:30:12.299Z,18.30
2023-04-16T17:33:59.948Z,15.90
2023-04-16T17:37:37.120Z,19.80
2023-04-16T17:41:15.761Z,20.60
2023-04-16T17:44:53.401Z,22.30
2023-04-16T17:48:40.495Z,25.80
2023-04-16T17:52:28.280Z,23.20
2023-04-16T17:56:17.033Z,26.50
2023-04-16T17:59:54.089Z,27.50
2023-04-16T18:03:38.467Z,27.30
2023-04-16T18:07:07.748Z,30.00
2023-04-16T18:10:54.973Z,31.20
2023-04-16T18:14:33.599Z,31.30
2023-04-16T18:18:13.282Z,33.60
2023-04-16T18:22:01.489Z,33.90
2023-04-16T18:25:44.694Z,30.70
2023-04-16T18:29:34.001Z,22.90
2023-04-16T18:33:48.815Z,28.80
2023-04-16T18:37:33.302Z,32.30
2023-04-16T18:41:14.413Z,32.70
2023-04-16T18:45:03.735Z,34.20
2023-04-16T18:48:55.760Z,36.70
2023-04-16T18:52:35.054Z,30.80
2023-04-16T18:56:24.114Z,30.10
2023-04-16T18:59:45.857Z,31.90
2023-04-16T19:03:37.498Z,34.20
2023-04-16T19:07:27.259Z,37.80
2023-04-16T19:10:58.628Z,37.80
2023-04-16T19:14:47.620Z,37.90
2023-04-16T19:18:24.841Z,34.80
2023-04-16T19:22:05.720Z,35.50
2023-04-16T19:25:47.277Z,33.60
2023-04-16T19:29:36.234Z,31.70
2023-04-16T19:33:26.113Z,32.00
2023-04-16T19:37:14.665Z,29.40
2023-04-16T19:41:03.581Z,32.10
2023-04-16T19:44:35.033Z,30.80
2023-04-16T19:48:25.561Z,26.70
2023-04-16T19:52:17.105Z,27.90
2023-04-16T19:56:10.776Z,28.80
2023-04-16T19:59:59.212Z,27.00
2023-04-16T20:03:49.332Z,28.20
2023-04-16T20:07:37.283Z,29.10
2023-04-16T20:11:26.290Z,25.40
2023-04-16T20:15:15.707Z,30.50
2023-04-16T20:19:05.243Z,30.50
2023-04-16T20:22:55.172Z,29.20
2023-04-16T20:26:43.112Z,31.30
2023-04-16T20:30:19.831Z,31.20
2023-04-16T20:33:43.753Z,28.20
2023-04-16T20:37:23.359Z,32.00
2023-04-16T20:41:14.389Z,35.30
2023-04-16T20:45:00.085Z,36.70
2023-04-16T20:48:49.425Z,38.00
2023-04-16T20:52:24.054Z,35.00
2023-04-16T20:56:10.550Z,38.70
2023-04-16T21:00:01.062Z,37.10
2023-04-16T21:03:35.055Z,36.00
2023-04-16T21:07:14.955Z,35.30
2023-04-16T21:11:03.464Z,36.30
2023-04-16T21:14:51.058Z,39.30
2023-04-16T21:18:39.116Z,36.80
2023-04-16T21:22:27.594Z,28.80
2023-04-16T21:26:06.305Z,30.50
2023-04-16T21:29:40.831Z,32.90
2023-04-16T21:33:28.571Z,31.80
2023-04-16T21:37:00.878Z,26.20
2023-04-16T21:40:48.528Z,18.20
2023-04-16T21:44:35.305Z,30.80
2023-04-16T21:48:02.447Z,25.70
2023-04-16T21:51:43.901Z,30.10
2023-04-16T21:55:30.467Z,30.00
2023-04-16T21:59:07.822Z,32.10
2023-04-16T22:02:53.135Z,26.60
2023-04-16T22:06:23.408Z,31.60
2023-04-16T22:10:12.957Z,28.60
2023-04-16T22:13:39.601Z,21.40
2023-04-16T22:17:24.337Z,34.60
2023-04-16T22:20:46.404Z,31.40
2023-04-16T22:24:34.023Z,28.90
2023-04-16T22:28:04.451Z,28.50
2023-04-16T22:31:52.046Z,26.70
2023-04-16T22:35:39.610Z,26.00
2023-04-16T22:39:14.373Z,29.10
2023-04-16T22:42:44.892Z,26.60
2023-04-16T22:46:41.799Z,27.50
2023-04-16T22:50:29.338Z,25.70
2023-04-16T22:54:16.752Z,28.10
2023-04-16T22:58:00.662Z,30.20
2023-04-16T23:01:32.493Z,28.40
2023-04-16T23:05:20.095Z,30.30
2023-04-16T23:09:06.611Z,30.90
2023-04-16T23:12:44.094Z,28.30
2023-04-16T23:16:24.261Z,31.60
2023-04-16T23:19:57.175Z,28.00
2023-04-16T23:23:37.377Z,27.70
2023-04-16T23:27:17.318Z,25.90
2023-04-16T23:31:07.095Z,27.90
2023-04-16T23:34:55.039Z,27.30
2023-04-16T23:38:42.484Z,28.10
2023-04-16T23:42:17.412Z,29.40
2023-04-16T23:45:48.169Z,30.40
2023-04-16T23:49:28.335Z,25.90
2023-04-16T23:53:15.791Z,27.60
2023-04-16T23:57:03.266Z,32.00
